Back to Top

Language: 

My Weather Underground Personal Weather Station Historical Data with Graphs...

Delerius Weather Station Historical Data
Daily Summary for September 30, 2017 Units:  English    Metric   Both
« Previous Day
Next Day »
Daily Weekly Monthly Yearly Custom
  High: Low: Average:
Temperature: 60.3 °F 46.9 °F 53.5 °F
Dew Point: 53.7 °F 44.3 °F 49.8 °F
Humidity: 96 % 73 % 87 %
Wind Speed: 13.0 mph 0.0 mph 4.4 mph
Wind Gust: 23.0 mph - -
Wind:- - South
Pressure: 29.97 in 29.84 in -
Precipitation: 0.04 in    
Historical Graphs
 
 
Tabular Data for September 30, 2017
Time Temperature Dew Point Pressure Wind Wind Speed Wind Gust Humidity Rainfall Rate (Hourly) solar Conditions
00:01 49.8 °F 46.1 °F 29.95 in SW 4.0 mph 6.0 mph 87 % 0.00 in 0 W/m2
00:12 49.6 °F 45.9 °F 29.95 in SW 4.0 mph 7.0 mph 87 % 0.00 in 0 W/m2
00:17 49.5 °F 45.8 °F 29.95 in SW 5.0 mph 7.0 mph 87 % 0.00 in 0 W/m2
00:22 49.5 °F 45.8 °F 29.95 in SW 5.0 mph 9.0 mph 87 % 0.00 in 0 W/m2
00:27 49.3 °F 45.6 °F 29.95 in SW 4.0 mph 9.0 mph 87 % 0.00 in 0 W/m2
00:32 49.3 °F 45.9 °F 29.95 in SW 5.0 mph 9.0 mph 88 % 0.00 in 0 W/m2
00:37 49.3 °F 45.9 °F 29.95 in SW 5.0 mph 9.0 mph 88 % 0.00 in 0 W/m2
00:42 49.3 °F 45.9 °F 29.95 in SW 5.0 mph 9.0 mph 88 % 0.00 in 0 W/m2
00:47 49.3 °F 45.6 °F 29.95 in SW 5.0 mph 8.0 mph 87 % 0.00 in 0 W/m2
00:52 49.3 °F 45.9 °F 29.95 in SW 5.0 mph 9.0 mph 88 % 0.00 in 0 W/m2
00:57 49.5 °F 46.1 °F 29.95 in SW 6.0 mph 9.0 mph 88 % 0.00 in 0 W/m2
01:02 49.5 °F 45.8 °F 29.95 in SW 6.0 mph 10.0 mph 87 % 0.00 in 0 W/m2
01:07 49.5 °F 45.8 °F 29.95 in SW 6.0 mph 10.0 mph 87 % 0.00 in 0 W/m2
01:12 49.3 °F 45.6 °F 29.95 in SW 6.0 mph 9.0 mph 87 % 0.00 in 0 W/m2
01:17 49.5 °F 45.8 °F 29.95 in SW 7.0 mph 10.0 mph 87 % 0.00 in 0 W/m2
01:22 49.5 °F 45.8 °F 29.95 in SW 7.0 mph 10.0 mph 87 % 0.00 in 0 W/m2
01:27 49.5 °F 45.8 °F 29.95 in SW 6.0 mph 10.0 mph 87 % 0.00 in 0 W/m2
01:32 49.3 °F 45.6 °F 29.96 in SW 6.0 mph 9.0 mph 87 % 0.00 in 0 W/m2
01:37 49.3 °F 45.6 °F 29.96 in SW 7.0 mph 10.0 mph 87 % 0.00 in 0 W/m2
01:42 49.3 °F 45.6 °F 29.96 in SW 7.0 mph 10.0 mph 87 % 0.00 in 0 W/m2
01:47 49.1 °F 45.4 °F 29.95 in SW 6.0 mph 10.0 mph 87 % 0.00 in 0 W/m2
01:52 49.1 °F 45.4 °F 29.95 in SW 5.0 mph 10.0 mph 87 % 0.00 in 0 W/m2
01:57 48.9 °F 45.5 °F 29.95 in SW 5.0 mph 8.0 mph 88 % 0.00 in 0 W/m2
02:02 48.9 °F 45.5 °F 29.95 in SW 5.0 mph 8.0 mph 88 % 0.00 in 0 W/m2
02:07 49.1 °F 45.7 °F 29.95 in SSW 4.0 mph 9.0 mph 88 % 0.00 in 0 W/m2
02:12 49.3 °F 45.9 °F 29.95 in SSW 4.0 mph 9.0 mph 88 % 0.00 in 0 W/m2
02:17 49.5 °F 45.8 °F 29.95 in SSW 5.0 mph 10.0 mph 87 % 0.00 in 0 W/m2
02:23 49.6 °F 45.9 °F 29.95 in SSW 6.0 mph 10.0 mph 87 % 0.00 in 0 W/m2
02:28 49.8 °F 46.1 °F 29.95 in SSW 6.0 mph 10.0 mph 87 % 0.00 in 0 W/m2
02:33 49.8 °F 45.8 °F 29.96 in SSW 6.0 mph 10.0 mph 86 % 0.00 in 0 W/m2
02:38 49.8 °F 45.8 °F 29.95 in SSW 6.0 mph 10.0 mph 86 % 0.00 in 0 W/m2
02:43 49.8 °F 45.8 °F 29.95 in SSW 5.0 mph 9.0 mph 86 % 0.00 in 0 W/m2
02:48 49.8 °F 45.8 °F 29.95 in SSW 5.0 mph 9.0 mph 86 % 0.00 in 0 W/m2
02:53 49.8 °F 45.8 °F 29.95 in SW 4.0 mph 9.0 mph 86 % 0.00 in 0 W/m2
02:58 49.6 °F 45.6 °F 29.95 in SW 3.0 mph 7.0 mph 86 % 0.00 in 0 W/m2
03:03 49.5 °F 45.4 °F 29.95 in SSW 2.0 mph 7.0 mph 86 % 0.00 in 0 W/m2
03:08 49.1 °F 45.1 °F 29.95 in Calm   4.0 mph 86 % 0.00 in 0 W/m2
03:13 48.7 °F 44.7 °F 29.95 in Calm   2.0 mph 86 % 0.00 in 0 W/m2
03:18 48.4 °F 44.7 °F 29.95 in Calm   3.0 mph 87 % 0.00 in 0 W/m2
03:23 48.0 °F 44.3 °F 29.96 in Calm   3.0 mph 87 % 0.00 in 0 W/m2
03:28 47.8 °F 44.5 °F 29.95 in Calm   2.0 mph 88 % 0.00 in 0 W/m2
03:33 47.7 °F 44.6 °F 29.95 in East 1.0 mph 5.0 mph 89 % 0.00 in 0 W/m2
03:38 47.7 °F 44.6 °F 29.95 in East 1.0 mph 5.0 mph 89 % 0.00 in 0 W/m2
03:43 47.5 °F 44.7 °F 29.95 in ESE 2.0 mph 5.0 mph 90 % 0.00 in 0 W/m2
03:48 47.3 °F 44.5 °F 29.95 in ESE 1.0 mph 5.0 mph 90 % 0.00 in 0 W/m2
03:53 47.1 °F 44.3 °F 29.95 in East 1.0 mph 5.0 mph 90 % 0.00 in 0 W/m2
03:58 47.1 °F 44.3 °F 29.95 in East 1.0 mph 5.0 mph 90 % 0.00 in 0 W/m2
04:03 47.1 °F 44.3 °F 29.95 in East 2.0 mph 5.0 mph 90 % 0.00 in 0 W/m2
04:08 47.1 °F 44.6 °F 29.95 in East 2.0 mph 5.0 mph 91 % 0.00 in 0 W/m2
04:13 46.9 °F 44.4 °F 29.95 in East 1.0 mph 5.0 mph 91 % 0.00 in 0 W/m2
04:18 46.9 °F 44.4 °F 29.95 in Calm   3.0 mph 91 % 0.00 in 0 W/m2
04:23 46.9 °F 44.4 °F 29.95 in East 1.0 mph 4.0 mph 91 % 0.00 in 0 W/m2
04:28 47.1 °F 44.6 °F 29.95 in East 1.0 mph 4.0 mph 91 % 0.00 in 0 W/m2
04:33 47.1 °F 44.6 °F 29.95 in East 1.0 mph 4.0 mph 91 % 0.00 in 0 W/m2
04:38 47.1 °F 44.6 °F 29.94 in Calm   3.0 mph 91 % 0.00 in 0 W/m2
04:43 47.1 °F 44.6 °F 29.94 in Calm   2.0 mph 91 % 0.00 in 0 W/m2
04:48 47.1 °F 44.6 °F 29.94 in Calm   2.0 mph 91 % 0.00 in 0 W/m2
04:54 46.9 °F 44.4 °F 29.94 in Calm     91 % 0.00 in 0 W/m2
04:59 46.9 °F 44.4 °F 29.94 in Calm     91 % 0.00 in 0 W/m2
05:04 46.9 °F 44.4 °F 29.94 in Calm   4.0 mph 91 % 0.00 in 0 W/m2
05:09 46.9 °F 44.7 °F 29.94 in SE 2.0 mph 6.0 mph 92 % 0.00 in 0 W/m2
05:14 47.1 °F 44.9 °F 29.94 in SE 2.0 mph 6.0 mph 92 % 0.00 in 0 W/m2
05:19 47.3 °F 45.1 °F 29.94 in SE 1.0 mph 6.0 mph 92 % 0.00 in 0 W/m2
05:24 47.5 °F 45.3 °F 29.94 in SE 1.0 mph 4.0 mph 92 % 0.00 in 0 W/m2
05:29 47.5 °F 45.3 °F 29.94 in ESE 1.0 mph 4.0 mph 92 % 0.00 in 0 W/m2
05:34 47.7 °F 45.5 °F 29.94 in ENE 2.0 mph 6.0 mph 92 % 0.00 in 0 W/m2
05:39 47.7 °F 45.5 °F 29.94 in ENE 2.0 mph 6.0 mph 92 % 0.00 in 0 W/m2
05:44 47.7 °F 45.2 °F 29.94 in ENE 1.0 mph 4.0 mph 91 % 0.00 in 0 W/m2
05:49 47.7 °F 45.2 °F 29.94 in ENE 1.0 mph 5.0 mph 91 % 0.00 in 0 W/m2
05:54 47.8 °F 45.3 °F 29.95 in Calm   5.0 mph 91 % 0.00 in 0 W/m2
05:55 47.8 °F 45.3 °F 29.94 in Calm   5.0 mph 91 % 0.00 in 0 W/m2
06:00 47.7 °F 45.2 °F 29.95 in SSW 1.0 mph 5.0 mph 91 % 0.00 in 0 W/m2
06:05 48.0 °F 45.8 °F 29.95 in SSW 3.0 mph 13.0 mph 92 % 0.00 in 0 W/m2
06:10 48.4 °F 46.2 °F 29.95 in SSW 7.0 mph 13.0 mph 92 % 0.00 in 0 W/m2
06:15 48.9 °F 46.4 °F 29.95 in SSW 8.0 mph 12.0 mph 91 % 0.00 in 0 W/m2
06:20 49.3 °F 46.5 °F 29.95 in SSW 8.0 mph 13.0 mph 90 % 0.00 in 0 W/m2
06:25 49.5 °F 46.4 °F 29.95 in SSW 9.0 mph 13.0 mph 89 % 0.00 in 0 W/m2
06:30 49.6 °F 46.5 °F 29.95 in SSW 8.0 mph 13.0 mph 89 % 0.00 in 0 W/m2
06:35 49.6 °F 46.2 °F 29.95 in SW 8.0 mph 13.0 mph 88 % 0.00 in 0 W/m2
06:40 49.5 °F 46.1 °F 29.95 in SW 8.0 mph 11.0 mph 88 % 0.00 in 0 W/m2
06:45 49.5 °F 46.1 °F 29.95 in SW 8.0 mph 13.0 mph 88 % 0.00 in 0 W/m2
06:50 49.5 °F 46.1 °F 29.95 in SW 8.0 mph 13.0 mph 88 % 0.00 in 0 W/m2
06:55 49.5 °F 46.1 °F 29.95 in SW 7.0 mph 12.0 mph 88 % 0.00 in 0 W/m2
07:00 49.5 °F 46.1 °F 29.95 in SW 6.0 mph 9.0 mph 88 % 0.00 in 0 W/m2
07:05 49.3 °F 45.9 °F 29.95 in SSW 6.0 mph 10.0 mph 88 % 0.00 in 0 W/m2
07:10 49.3 °F 46.2 °F 29.95 in SSW 6.0 mph 10.0 mph 89 % 0.00 in 0 W/m2
07:15 49.3 °F 46.2 °F 29.95 in SSW 6.0 mph 8.0 mph 89 % 0.00 in 5 W/m2
07:20 49.3 °F 46.2 °F 29.95 in SSW 6.0 mph 12.0 mph 89 % 0.00 in 7 W/m2
07:25 49.5 °F 46.4 °F 29.95 in SW 7.0 mph 12.0 mph 89 % 0.00 in 9 W/m2
07:31 49.6 °F 46.5 °F 29.95 in SW 7.0 mph 12.0 mph 89 % 0.00 in 11 W/m2
07:36 49.8 °F 46.7 °F 29.95 in SW 8.0 mph 14.0 mph 89 % 0.00 in 11 W/m2
07:41 49.8 °F 46.7 °F 29.95 in SW 8.0 mph 14.0 mph 89 % 0.00 in 12 W/m2
07:46 50.0 °F 46.6 °F 29.94 in SW 7.0 mph 13.0 mph 88 % 0.00 in 16 W/m2
07:51 50.2 °F 46.8 °F 29.94 in SW 7.0 mph 10.0 mph 88 % 0.00 in 21 W/m2
07:56 50.2 °F 46.8 °F 29.95 in SW 5.0 mph 10.0 mph 88 % 0.00 in 21 W/m2
08:01 50.2 °F 46.8 °F 29.95 in SW 3.0 mph 7.0 mph 88 % 0.00 in 23 W/m2
08:06 50.2 °F 46.8 °F 29.95 in SW 1.0 mph 6.0 mph 88 % 0.00 in 25 W/m2
08:11 50.2 °F 46.8 °F 29.95 in SSE 2.0 mph 6.0 mph 88 % 0.00 in 25 W/m2
08:16 50.2 °F 46.8 °F 29.95 in SSE 5.0 mph 9.0 mph 88 % 0.00 in 25 W/m2
08:21 50.4 °F 46.9 °F 29.96 in SSE 6.0 mph 11.0 mph 88 % 0.00 in 26 W/m2
08:22 50.2 °F 46.8 °F 29.96 in SSE 7.0 mph 11.0 mph 88 % 0.00 in 26 W/m2
08:27 50.4 °F 46.9 °F 29.96 in SSE 7.0 mph 11.0 mph 88 % 0.00 in 26 W/m2
08:32 50.5 °F 47.1 °F 29.96 in SSE 6.0 mph 10.0 mph 88 % 0.00 in 30 W/m2
08:37 50.5 °F 47.1 °F 29.96 in South 5.0 mph 9.0 mph 88 % 0.00 in 39 W/m2
08:42 50.7 °F 47.3 °F 29.96 in South 5.0 mph 9.0 mph 88 % 0.00 in 33 W/m2
08:47 50.9 °F 47.5 °F 29.96 in South 4.0 mph 8.0 mph 88 % 0.00 in 37 W/m2
08:52 51.1 °F 47.6 °F 29.96 in South 4.0 mph 8.0 mph 88 % 0.00 in 47 W/m2
08:57 51.1 °F 47.6 °F 29.96 in South 3.0 mph 7.0 mph 88 % 0.00 in 65 W/m2
09:02 51.1 °F 47.6 °F 29.96 in South 4.0 mph 8.0 mph 88 % 0.00 in 72 W/m2
09:05 51.3 °F 47.8 °F 29.96 in SSE 4.0 mph 8.0 mph 88 % 0.00 in 97 W/m2
09:10 51.4 °F 48.0 °F 29.95 in SSE 5.0 mph 11.0 mph 88 % 0.00 in 105 W/m2
09:15 51.6 °F 47.9 °F 29.96 in SSE 5.0 mph 11.0 mph 87 % 0.00 in 88 W/m2
09:20 52.0 °F 48.2 °F 29.96 in South 4.0 mph 8.0 mph 87 % 0.00 in 105 W/m2
09:25 52.2 °F 48.4 °F 29.97 in South 4.0 mph 9.0 mph 87 % 0.00 in 130 W/m2
09:30 52.3 °F 48.6 °F 29.96 in South 3.0 mph 9.0 mph 87 % 0.00 in 174 W/m2
09:34 52.5 °F 48.8 °F 29.96 in South 2.0 mph 6.0 mph 87 % 0.00 in 183 W/m2
09:39 52.9 °F 49.1 °F 29.96 in South 2.0 mph 7.0 mph 87 % 0.00 in 322 W/m2
09:44 53.2 °F 49.2 °F 29.96 in SSE 2.0 mph 7.0 mph 86 % 0.00 in 132 W/m2
09:49 53.4 °F 49.0 °F 29.96 in SSE 3.0 mph 6.0 mph 85 % 0.00 in 128 W/m2
09:54 53.6 °F 49.2 °F 29.96 in SSE 4.0 mph 6.0 mph 85 % 0.00 in 151 W/m2
10:04 53.8 °F 49.4 °F 29.96 in South 4.0 mph 8.0 mph 85 % 0.00 in 174 W/m2
10:09 54.0 °F 49.6 °F 29.96 in SSW 5.0 mph 12.0 mph 85 % 0.00 in 246 W/m2
10:14 54.3 °F 49.9 °F 29.95 in SSW 5.0 mph 12.0 mph 85 % 0.00 in 195 W/m2
10:19 54.7 °F 50.3 °F 29.95 in SSW 5.0 mph 11.0 mph 85 % 0.00 in 264 W/m2
10:24 54.9 °F 50.4 °F 29.95 in SSW 7.0 mph 12.0 mph 85 % 0.00 in 248 W/m2
10:29 55.2 °F 50.8 °F 29.95 in SSW 7.0 mph 12.0 mph 85 % 0.00 in 615 W/m2
10:34 55.9 °F 51.8 °F 29.95 in SSW 6.0 mph 13.0 mph 86 % 0.00 in 628 W/m2
10:39 56.8 °F 52.1 °F 29.94 in SW 7.0 mph 13.0 mph 84 % 0.00 in 554 W/m2
10:44 57.4 °F 51.6 °F 29.94 in SW 9.0 mph 18.0 mph 81 % 0.00 in 332 W/m2
10:54 57.0 °F 50.9 °F 29.94 in SW 10.0 mph 21.0 mph 80 % 0.00 in 181 W/m2
10:59 57.0 °F 51.2 °F 29.94 in SW 9.0 mph 21.0 mph 81 % 0.00 in 438 W/m2
11:04 57.6 °F 51.8 °F 29.94 in SW 9.0 mph 21.0 mph 81 % 0.00 in 664 W/m2
11:09 57.9 °F 51.8 °F 29.94 in SW 11.0 mph 21.0 mph 80 % 0.00 in 717 W/m2
11:14 58.3 °F 51.8 °F 29.94 in WSW 12.0 mph 21.0 mph 79 % 0.00 in 710 W/m2
11:19 58.3 °F 51.4 °F 29.94 in SW 13.0 mph 22.0 mph 78 % 0.00 in 399 W/m2
11:24 57.9 °F 51.4 °F 29.94 in SW 13.0 mph 23.0 mph 79 % 0.00 in 413 W/m2
11:29 57.9 °F 51.1 °F 29.94 in SW 13.0 mph 23.0 mph 78 % 0.00 in 633 W/m2
11:34 58.1 °F 51.3 °F 29.94 in SSW 12.0 mph 22.0 mph 78 % 0.00 in 288 W/m2
11:39 58.6 °F 51.8 °F 29.93 in SSW 10.0 mph 18.0 mph 78 % 0.00 in 701 W/m2
11:44 58.8 °F 51.6 °F 29.93 in SW 9.0 mph 20.0 mph 77 % 0.00 in 162 W/m2
11:49 58.8 °F 51.6 °F 29.93 in SW 10.0 mph 21.0 mph 77 % 0.00 in 309 W/m2
11:54 58.5 °F 51.3 °F 29.93 in SSW 11.0 mph 21.0 mph 77 % 0.00 in 698 W/m2
11:59 58.5 °F 50.9 °F 29.93 in SSW 12.0 mph 23.0 mph 76 % 0.00 in 243 W/m2
12:04 58.3 °F 50.0 °F 29.93 in SSW 13.0 mph 23.0 mph 74 % 0.00 in 225 W/m2
12:10 57.7 °F 49.5 °F 29.92 in SSW 12.0 mph 22.0 mph 74 % 0.00 in 153 W/m2
12:15 57.7 °F 49.9 °F 29.92 in SSW 11.0 mph 19.0 mph 75 % 0.00 in 631 W/m2
12:20 58.3 °F 51.1 °F 29.92 in SSW 9.0 mph 16.0 mph 77 % 0.00 in 636 W/m2
12:25 58.8 °F 50.5 °F 29.92 in SW 10.0 mph 19.0 mph 74 % 0.00 in 765 W/m2
12:30 59.0 °F 50.7 °F 29.92 in SW 11.0 mph 19.0 mph 74 % 0.00 in 255 W/m2
12:35 59.0 °F 51.1 °F 29.92 in SW 8.0 mph 18.0 mph 75 % 0.00 in 174 W/m2
12:40 59.0 °F 51.4 °F 29.92 in SW 6.0 mph 11.0 mph 76 % 0.00 in 167 W/m2
12:45 58.8 °F 51.3 °F 29.92 in SW 7.0 mph 14.0 mph 76 % 0.00 in 172 W/m2
12:50 58.3 °F 50.7 °F 29.92 in SSW 9.0 mph 19.0 mph 76 % 0.00 in 188 W/m2
12:55 57.9 °F 50.8 °F 29.92 in SSW 9.0 mph 19.0 mph 77 % 0.00 in 139 W/m2
13:00 57.9 °F 51.1 °F 29.91 in SW 7.0 mph 14.0 mph 78 % 0.00 in 578 W/m2
13:05 58.5 °F 51.6 °F 29.91 in SW 6.0 mph 13.0 mph 78 % 0.00 in 334 W/m2
13:10 58.8 °F 52.0 °F 29.91 in SW 6.0 mph 13.0 mph 78 % 0.00 in 209 W/m2
13:15 58.8 °F 51.3 °F 29.91 in SW 7.0 mph 12.0 mph 76 % 0.00 in 176 W/m2
13:20 58.8 °F 51.3 °F 29.91 in SW 7.0 mph 12.0 mph 76 % 0.00 in 220 W/m2
13:25 58.6 °F 50.7 °F 29.91 in SSW 8.0 mph 13.0 mph 75 % 0.00 in 204 W/m2
13:30 58.6 °F 51.1 °F 29.90 in SSW 8.0 mph 14.0 mph 76 % 0.00 in 146 W/m2
13:35 58.6 °F 51.1 °F 29.90 in SSW 8.0 mph 14.0 mph 76 % 0.00 in 243 W/m2
13:40 58.8 °F 51.3 °F 29.90 in SW 8.0 mph 12.0 mph 76 % 0.00 in 193 W/m2
13:45 59.0 °F 51.1 °F 29.90 in SW 8.0 mph 15.0 mph 75 % 0.00 in 149 W/m2
13:50 59.0 °F 50.7 °F 29.90 in SW 9.0 mph 15.0 mph 74 % 0.00 in 114 W/m2
13:55 59.0 °F 51.1 °F 29.90 in SW 8.0 mph 15.0 mph 75 % 0.00 in 209 W/m2
14:00 59.0 °F 51.1 °F 29.90 in SW 8.0 mph 13.0 mph 75 % 0.00 in 271 W/m2
14:05 59.4 °F 51.4 °F 29.90 in SW 8.0 mph 13.0 mph 75 % 0.00 in 274 W/m2
14:10 59.7 °F 51.0 °F 29.90 in SW 9.0 mph 12.0 mph 73 % 0.00 in 225 W/m2
14:15 59.9 °F 51.2 °F 29.89 in SW 8.0 mph 12.0 mph 73 % 0.00 in 253 W/m2
14:20 60.1 °F 51.4 °F 29.89 in SW 8.0 mph 16.0 mph 73 % 0.00 in 471 W/m2
14:25 60.3 °F 51.9 °F 29.89 in SW 8.0 mph 16.0 mph 74 % 0.00 in 213 W/m2
14:30 60.3 °F 51.9 °F 29.90 in SSW 7.0 mph 12.0 mph 74 % 0.00 in 141 W/m2
14:35 59.9 °F 51.6 °F 29.90 in SSW 9.0 mph 18.0 mph 74 % 0.00 in 148 W/m2
14:36 59.9 °F 51.6 °F 29.90 in SSW 9.0 mph 18.0 mph 74 % 0.00 in 148 W/m2
14:41 59.5 °F 51.2 °F 29.90 in SSW 9.0 mph 18.0 mph 74 % 0.00 in 114 W/m2
14:46 59.5 °F 51.2 °F 29.89 in SW 8.0 mph 13.0 mph 74 % 0.00 in 192 W/m2
14:51 59.4 °F 51.8 °F 29.89 in SW 6.0 mph 10.0 mph 76 % 0.00 in 209 W/m2
14:56 59.5 °F 52.0 °F 29.90 in SW 7.0 mph 14.0 mph 76 % 0.00 in 169 W/m2
15:06 59.5 °F 52.3 °F 29.89 in SW 6.0 mph 12.0 mph 77 % 0.00 in 114 W/m2
15:11 59.4 °F 52.1 °F 29.89 in SW 5.0 mph 10.0 mph 77 % 0.00 in 105 W/m2
15:16 59.4 °F 52.1 °F 29.89 in SW 4.0 mph 10.0 mph 77 % 0.00 in 74 W/m2
15:21 59.2 °F 52.0 °F 29.89 in SW 6.0 mph 10.0 mph 77 % 0.00 in 51 W/m2
15:26 59.0 °F 51.8 °F 29.90 in SW 7.0 mph 11.0 mph 77 % 0.00 in 42 W/m2
15:31 58.8 °F 52.3 °F 29.90 in SW 6.0 mph 11.0 mph 79 % 0.00 in 63 W/m2
15:36 58.8 °F 52.7 °F 29.89 in SW 5.0 mph 8.0 mph 80 % 0.00 in 58 W/m2
15:41 58.6 °F 52.8 °F 29.89 in SW 5.0 mph 10.0 mph 81 % 0.00 in 51 W/m2
15:46 58.3 °F 52.8 °F 29.89 in SSW 7.0 mph 13.0 mph 82 % 0.00 in 39 W/m2
15:51 57.7 °F 52.6 °F 29.90 in SSW 8.0 mph 16.0 mph 83 % 0.00 in 58 W/m2
15:56 57.4 °F 52.9 °F 29.90 in SSW 8.0 mph 16.0 mph 85 % 0.01 in 83 W/m2
16:01 57.0 °F 52.9 °F 29.90 in SW 7.0 mph 12.0 mph 86 % 0.01 in 91 W/m2
16:06 56.7 °F 52.5 °F 29.89 in SSW 6.0 mph 12.0 mph 86 % 0.01 in 76 W/m2
16:11 56.5 °F 52.7 °F 29.89 in SSW 5.0 mph 11.0 mph 87 % 0.01 in 114 W/m2
16:16 56.5 °F 53.0 °F 29.89 in SW 4.0 mph 9.0 mph 88 % 0.01 in 90 W/m2
16:21 56.3 °F 52.8 °F 29.89 in SW 3.0 mph 6.0 mph 88 % 0.01 in 81 W/m2
16:26 56.3 °F 53.1 °F 29.89 in SSW 3.0 mph 9.0 mph 89 % 0.01 in 76 W/m2
16:31 56.3 °F 53.1 °F 29.90 in SSW 5.0 mph 10.0 mph 89 % 0.01 in 49 W/m2
16:36 56.1 °F 52.9 °F 29.90 in SSW 6.0 mph 12.0 mph 89 % 0.01 in 56 W/m2
16:41 56.1 °F 52.9 °F 29.90 in SSW 5.0 mph 12.0 mph 89 % 0.01 in 56 W/m2
16:46 56.1 °F 52.9 °F 29.90 in SSW 4.0 mph 8.0 mph 89 % 0.01 in 47 W/m2
16:51 56.1 °F 52.9 °F 29.90 in SSW 5.0 mph 9.0 mph 89 % 0.00 in 42 W/m2
16:56 56.1 °F 52.9 °F 29.90 in SW 5.0 mph 9.0 mph 89 % 0.00 in 53 W/m2
17:01 55.9 °F 53.0 °F 29.90 in SSW 4.0 mph 7.0 mph 90 % 0.01 in 58 W/m2
17:06 55.9 °F 53.0 °F 29.90 in SSW 4.0 mph 7.0 mph 90 % 0.01 in 65 W/m2
17:11 55.9 °F 53.4 °F 29.90 in SSW 3.0 mph 6.0 mph 91 % 0.01 in 74 W/m2
17:16 55.9 °F 53.4 °F 29.90 in SW 2.0 mph 6.0 mph 91 % 0.01 in 77 W/m2
17:17 55.8 °F 53.2 °F 29.90 in SW 2.0 mph 6.0 mph 91 % 0.01 in 83 W/m2
17:22 55.9 °F 53.4 °F 29.90 in Calm   4.0 mph 91 % 0.01 in 100 W/m2
17:27 55.9 °F 53.4 °F 29.90 in Calm   2.0 mph 91 % 0.01 in 53 W/m2
17:32 55.9 °F 53.4 °F 29.90 in SW 1.0 mph 4.0 mph 91 % 0.01 in 40 W/m2
17:37 55.9 °F 53.6 °F 29.90 in SW 1.0 mph 4.0 mph 92 % 0.01 in 30 W/m2
17:42 55.9 °F 53.4 °F 29.91 in SW 1.0 mph 4.0 mph 91 % 0.01 in 33 W/m2
17:47 55.9 °F 53.6 °F 29.90 in SW 1.0 mph 4.0 mph 92 % 0.01 in 35 W/m2
17:52 55.9 °F 53.6 °F 29.90 in Calm   3.0 mph 92 % 0.01 in 32 W/m2
17:57 55.9 °F 53.6 °F 29.90 in Calm   3.0 mph 92 % 0.00 in 42 W/m2
18:02 55.9 °F 53.6 °F 29.90 in Calm   3.0 mph 92 % 0.00 in 39 W/m2
18:08 55.9 °F 53.6 °F 29.90 in SW 1.0 mph 5.0 mph 92 % 0.00 in 32 W/m2
18:13 55.9 °F 53.6 °F 29.90 in South 1.0 mph 5.0 mph 92 % 0.00 in 18 W/m2
18:18 55.9 °F 53.6 °F 29.90 in South 1.0 mph 4.0 mph 92 % 0.00 in 14 W/m2
18:23 55.8 °F 53.5 °F 29.91 in South 1.0 mph 5.0 mph 92 % 0.00 in 14 W/m2
18:28 55.8 °F 53.5 °F 29.91 in South 2.0 mph 5.0 mph 92 % 0.00 in 7 W/m2
18:33 55.8 °F 53.5 °F 29.90 in South 1.0 mph 4.0 mph 92 % 0.00 in 5 W/m2
18:38 55.8 °F 53.5 °F 29.90 in Calm   2.0 mph 92 % 0.00 in 0 W/m2
18:43 55.8 °F 53.5 °F 29.90 in Calm   2.0 mph 92 % 0.00 in 0 W/m2
18:48 55.6 °F 53.3 °F 29.90 in Calm   2.0 mph 92 % 0.00 in 0 W/m2
18:53 55.6 °F 53.3 °F 29.90 in Calm   1.0 mph 92 % 0.00 in 0 W/m2
18:58 55.6 °F 53.3 °F 29.90 in Calm   5.0 mph 92 % 0.00 in 0 W/m2
19:03 55.4 °F 53.4 °F 29.90 in SSE 1.0 mph 5.0 mph 93 % 0.00 in 0 W/m2
19:08 55.4 °F 53.4 °F 29.90 in SSE 1.0 mph 5.0 mph 93 % 0.00 in 0 W/m2
19:13 55.2 °F 53.2 °F 29.90 in SSE 1.0 mph 5.0 mph 93 % 0.00 in 0 W/m2
19:18 55.2 °F 53.2 °F 29.90 in SSE 1.0 mph 4.0 mph 93 % 0.00 in 0 W/m2
19:23 55.2 °F 53.2 °F 29.90 in SSE 1.0 mph 6.0 mph 93 % 0.00 in 0 W/m2
19:28 55.0 °F 53.1 °F 29.90 in SSE 2.0 mph 6.0 mph 93 % 0.00 in 0 W/m2
19:33 55.0 °F 53.1 °F 29.89 in SE 2.0 mph 5.0 mph 93 % 0.00 in 0 W/m2
19:38 55.0 °F 53.1 °F 29.90 in SE 3.0 mph 6.0 mph 93 % 0.00 in 0 W/m2
19:43 55.0 °F 53.1 °F 29.90 in SE 2.0 mph 6.0 mph 93 % 0.00 in 0 W/m2
19:48 55.0 °F 53.3 °F 29.90 in SE 1.0 mph 5.0 mph 94 % 0.00 in 0 W/m2
19:53 55.0 °F 53.3 °F 29.89 in South 1.0 mph 5.0 mph 94 % 0.00 in 0 W/m2
19:58 54.9 °F 53.2 °F 29.89 in South 2.0 mph 5.0 mph 94 % 0.00 in 0 W/m2
20:03 54.9 °F 53.2 °F 29.89 in SSE 2.0 mph 5.0 mph 94 % 0.00 in 0 W/m2
20:08 54.9 °F 53.2 °F 29.89 in SE 1.0 mph 5.0 mph 94 % 0.01 in 0 W/m2
20:13 54.9 °F 53.2 °F 29.89 in Calm   3.0 mph 94 % 0.01 in 0 W/m2
20:18 54.9 °F 53.2 °F 29.89 in SE 1.0 mph 5.0 mph 94 % 0.01 in 0 W/m2
20:23 54.9 °F 53.2 °F 29.89 in SE 1.0 mph 5.0 mph 94 % 0.01 in 0 W/m2
20:28 54.9 °F 53.2 °F 29.89 in SE 1.0 mph 4.0 mph 94 % 0.01 in 0 W/m2
20:33 54.9 °F 53.2 °F 29.89 in SE 1.0 mph 4.0 mph 94 % 0.01 in 0 W/m2
20:38 54.9 °F 53.2 °F 29.89 in SE 1.0 mph 4.0 mph 94 % 0.01 in 0 W/m2
20:43 54.9 °F 53.2 °F 29.89 in SE 1.0 mph 4.0 mph 94 % 0.01 in 0 W/m2
20:48 54.9 °F 53.2 °F 29.89 in Calm   2.0 mph 94 % 0.01 in 0 W/m2
20:53 54.9 °F 53.5 °F 29.89 in SE 1.0 mph 2.0 mph 95 % 0.02 in 0 W/m2
20:58 54.9 °F 53.5 °F 29.88 in ESE 2.0 mph 5.0 mph 95 % 0.02 in 0 W/m2
21:03 54.9 °F 53.5 °F 29.88 in ESE 2.0 mph 5.0 mph 95 % 0.02 in 0 W/m2
21:08 54.9 °F 53.5 °F 29.88 in ESE 3.0 mph 7.0 mph 95 % 0.02 in 0 W/m2
21:18 54.9 °F 53.5 °F 29.88 in SE 3.0 mph 6.0 mph 95 % 0.02 in 0 W/m2
21:23 54.9 °F 53.5 °F 29.88 in SE 2.0 mph 5.0 mph 95 % 0.02 in 0 W/m2
21:28 54.9 °F 53.5 °F 29.88 in SE 2.0 mph 5.0 mph 95 % 0.02 in 0 W/m2
21:33 54.9 °F 53.5 °F 29.88 in SE 2.0 mph 5.0 mph 95 % 0.02 in 0 W/m2
21:38 54.7 °F 53.3 °F 29.88 in ESE 2.0 mph 5.0 mph 95 % 0.02 in 0 W/m2
21:43 54.9 °F 53.5 °F 29.87 in ESE 3.0 mph 6.0 mph 95 % 0.02 in 0 W/m2
21:48 54.7 °F 53.3 °F 29.88 in ESE 3.0 mph 6.0 mph 95 % 0.02 in 0 W/m2
21:53 54.9 °F 53.5 °F 29.87 in ESE 3.0 mph 6.0 mph 95 % 0.01 in 0 W/m2
21:58 54.7 °F 53.6 °F 29.87 in ESE 3.0 mph 6.0 mph 96 % 0.01 in 0 W/m2
22:03 54.7 °F 53.6 °F 29.87 in SE 3.0 mph 6.0 mph 96 % 0.00 in 0 W/m2
22:08 54.9 °F 53.7 °F 29.87 in SE 3.0 mph 6.0 mph 96 % 0.00 in 0 W/m2
22:13 54.7 °F 53.6 °F 29.86 in ESE 2.0 mph 6.0 mph 96 % 0.00 in 0 W/m2
22:18 54.9 °F 53.7 °F 29.87 in ESE 2.0 mph 6.0 mph 96 % 0.00 in 0 W/m2
22:23 54.9 °F 53.7 °F 29.86 in East 2.0 mph 6.0 mph 96 % 0.00 in 0 W/m2
22:28 54.9 °F 53.7 °F 29.86 in ESE 2.0 mph 6.0 mph 96 % 0.00 in 0 W/m2
22:33 54.9 °F 53.7 °F 29.86 in ESE 2.0 mph 5.0 mph 96 % 0.00 in 0 W/m2
22:38 54.9 °F 53.7 °F 29.86 in East 2.0 mph 6.0 mph 96 % 0.00 in 0 W/m2
22:44 54.9 °F 53.7 °F 29.86 in ESE 3.0 mph 6.0 mph 96 % 0.00 in 0 W/m2
22:49 54.9 °F 53.7 °F 29.86 in SE 3.0 mph 6.0 mph 96 % 0.00 in 0 W/m2
22:54 54.9 °F 53.7 °F 29.86 in SSE 2.0 mph 6.0 mph 96 % 0.00 in 0 W/m2
22:59 54.9 °F 53.7 °F 29.86 in SSE 1.0 mph 5.0 mph 96 % 0.00 in 0 W/m2
23:04 54.9 °F 53.7 °F 29.86 in SSE 1.0 mph 5.0 mph 96 % 0.00 in 0 W/m2
23:08 54.9 °F 53.7 °F 29.85 in SSE 2.0 mph 5.0 mph 96 % 0.00 in 0 W/m2
23:14 54.9 °F 53.7 °F 29.85 in SSE 2.0 mph 5.0 mph 96 % 0.00 in 0 W/m2
23:19 54.9 °F 53.7 °F 29.85 in SE 3.0 mph 7.0 mph 96 % 0.00 in 0 W/m2
23:24 54.9 °F 53.7 °F 29.85 in SE 4.0 mph 7.0 mph 96 % 0.00 in 0 W/m2
23:29 54.9 °F 53.7 °F 29.85 in SE 3.0 mph 7.0 mph 96 % 0.00 in 0 W/m2
23:34 54.9 °F 53.7 °F 29.85 in ESE 3.0 mph 6.0 mph 96 % 0.00 in 0 W/m2
23:39 54.9 °F 53.7 °F 29.85 in ESE 4.0 mph 6.0 mph 96 % 0.00 in 0 W/m2
23:44 54.9 °F 53.7 °F 29.85 in ESE 4.0 mph 7.0 mph 96 % 0.00 in 0 W/m2
23:49 54.9 °F 53.7 °F 29.84 in ESE 3.0 mph 7.0 mph 96 % 0.00 in 0 W/m2
23:54 54.9 °F 53.7 °F 29.84 in ESE 3.0 mph 6.0 mph 96 % 0.00 in 0 W/m2
23:59 54.9 °F 53.7 °F 29.84 in ESE 3.0 mph 6.0 mph 96 % 0.00 in 0 W/m2
Delerius-Weather
Compliments of Weather Underground - 2.25 mb

Data updates at regular intervals.